Latest Coastal Weather Observations for Rosslyn Bay Harbour

IDQ60701

Issued at 4:31 pm EST Friday 29 May 2015 (issued every 10 minutes, with the page automatically refreshed every 10 minutes)

About coastal observations | Map of coastal stations | Coastal observations for QLD | Marine services | Other Formats
Station Details ID: 033208 Name: ROSSLYN BAY NTC AWS Lat: -23.16 Lon: 150.79 Height: 0.0 m
Data from the previous 72 hours. | See also: Recent months for locations in Queensland
Date/Time
EST
Temp

°C
Wind Pressure Rain
since 9am
mm
Weather Cloud Vis
km
Sea
Height
m
Swell
Dir
 
Speed
knots
Gust
knots
hPa Trend Height
m
Period
s
Dir
29/04:30pm 22.4 S 5 9 1020.9 - - - - - - - - -
29/04:00pm 22.5 S 5 8 1020.6 - - - - - - - - -
29/03:30pm 22.7 S 6 9 1020.4 - - - - - - - - -
29/03:00pm 22.6 S 6 9 1020.2 - - - - - - - - -
29/02:30pm 22.4 S 7 9 1020.3 - - - - - - - - -
29/02:00pm 22.5 S 7 10 1020.4 - - - - - - - - -
29/01:30pm 22.2 S 7 11 1020.6 - - - - - - - - -
29/01:00pm 22.4 S 6 10 1020.7 - - - - - - - - -
29/12:30pm 22.3 S 7 10 1021.2 - - - - - - - - -
29/12:00pm 21.6 S 6 8 1021.9 - - - - - - - - -
29/11:30am 21.8 S 5 10 1022.3 - - - - - - - - -
29/11:00am 21.3 S 6 10 1022.7 - - - - - - - - -
29/10:30am 21.0 SSE 7 12 1023.0 - - - - - - - - -
29/10:00am 20.7 SSE 7 9 1023.3 - - - - - - - - -
29/09:30am 20.8 SSE 8 11 1023.5 - - - - - - - - -
29/09:00am 20.8 S 5 9 1023.4 - - - - - - - - -
29/08:30am 20.3 S 5 8 1023.1 - - - - - - - - -
29/08:00am 19.4 S 3 6 1022.9 - - - - - - - - -
29/07:30am 18.5 SSW 4 7 1022.7 - - - - - - - - -
29/07:00am 18.1 S 3 5 1022.3 - - - - - - - - -
29/06:30am 18.0 SSW 4 7 1022.3 - - - - - - - - -
29/06:00am 17.8 SSW 4 7 1021.9 - - - - - - - - -
29/05:30am 18.1 S 3 6 1021.6 - - - - - - - - -
29/05:00am 18.1 SSW 4 6 1021.3 - - - - - - - - -
29/04:30am 18.8 SSW 3 5 1021.3 - - - - - - - - -
29/04:00am 19.1 SSW 4 6 1021.3 - - - - - - - - -
29/03:30am 19.1 SW 3 5 1021.4 - - - - - - - - -
29/03:00am 19.8 SSW 4 7 1021.4 - - - - - - - - -
29/02:30am 20.2 SSW 4 8 1021.4 - - - - - - - - -
29/02:00am 20.0 SSW 4 6 1021.5 - - - - - - - - -
29/01:30am 20.2 SSW 4 6 1021.5 - - - - - - - - -
29/01:00am 20.1 S 3 6 1021.7 - - - - - - - - -
29/12:30am 20.3 S 2 5 1021.8 - - - - - - - - -
29/12:00am 20.3 SSW 2 4 1021.8 - - - - - - - - -
 
Date/Time
EST
Temp

°C
Wind Pressure Rain
since 9am
mm
Weather Cloud Vis
km
Sea
Height
m
Swell
Dir
 
Speed
knots
Gust
knots
hPa Trend Height
m
Period
s
Dir
28/11:30pm 20.6 SSW 3 6 1022.1 - - - - - - - - -
28/11:00pm 21.3 S 3 5 1022.2 - - - - - - - - -
28/10:30pm 21.7 S 4 7 1022.5 - - - - - - - - -
28/10:00pm 22.1 S 5 9 1022.6 - - - - - - - - -
28/09:30pm 22.1 S 6 9 1022.5 - - - - - - - - -
28/09:00pm 22.0 S 6 9 1022.4 - - - - - - - - -
28/08:30pm 22.1 S 6 9 1022.3 - - - - - - - - -
28/08:00pm 22.1 S 5 9 1022.1 - - - - - - - - -
28/07:30pm 22.0 S 7 10 1021.7 - - - - - - - - -
28/07:00pm 22.0 S 6 9 1021.4 - - - - - - - - -
28/06:30pm 21.9 S 5 7 1021.2 - - - - - - - - -
28/06:00pm 22.0 S 4 8 1020.8 - - - - - - - - -
28/05:30pm 22.1 S 4 9 1020.5 - - - - - - - - -
28/05:00pm 22.1 S 4 8 1020.5 - - - - - - - - -
28/04:30pm 22.3 S 6 9 1020.5 - - - - - - - - -
28/04:00pm 22.3 S 6 9 1020.4 - - - - - - - - -
28/03:30pm 22.3 S 6 11 1020.4 - - - - - - - - -
28/03:00pm 22.6 S 5 9 1020.4 - - - - - - - - -
28/02:30pm 22.2 S 8 11 1020.5 - - - - - - - - -
28/02:00pm 22.0 S 8 11 1020.4 - - - - - - - - -
28/01:30pm 22.1 S 8 10 1020.6 - - - - - - - - -
28/01:00pm 22.1 S 7 12 1020.9 - - - - - - - - -
28/12:30pm 22.1 S 8 11 1021.2 - - - - - - - - -
28/12:00pm 21.7 S 7 11 1021.7 - - - - - - - - -
28/11:30am 21.5 S 6 9 1022.0 - - - - - - - - -
28/11:00am 21.3 S 5 9 1022.3 - - - - - - - - -
28/10:30am 21.0 S 6 10 1022.4 - - - - - - - - -
28/10:00am 21.0 S 6 11 1022.7 - - - - - - - - -
28/09:30am 20.6 SSE 7 11 1022.7 - - - - - - - - -
28/09:00am 20.7 S 5 9 1022.9 - - - - - - - - -
28/08:30am 20.6 S 5 10 1022.4 - - - - - - - - -
28/08:00am 20.0 SSW 4 8 1022.2 - - - - - - - - -
28/07:30am 18.7 SSW 3 5 1021.8 - - - - - - - - -
28/07:00am 18.5 SSW 3 5 1021.5 - - - - - - - - -
28/06:30am 18.8 SSW 5 7 1021.3 - - - - - - - - -
28/06:00am 18.8 SSW 3 6 1020.9 - - - - - - - - -
28/05:30am 17.9 SSW 4 5 1020.8 - - - - - - - - -
28/05:00am 17.7 SSW 4 7 1020.5 - - - - - - - - -
28/04:30am 17.9 SSW 4 6 1020.3 - - - - - - - - -
28/04:00am 18.4 SSW 3 5 1020.3 - - - - - - - - -
28/03:30am 18.8 SSW 3 5 1020.1 - - - - - - - - -
28/03:00am 18.7 SSW 4 6 1020.3 - - - - - - - - -
28/02:30am 19.5 S 3 6 1020.2 - - - - - - - - -
28/02:00am 19.3 SSW 4 7 1020.7 - - - - - - - - -
28/01:30am 19.3 SSW 3 6 1020.9 - - - - - - - - -
28/01:00am 19.4 SSW 2 6 1021.2 - - - - - - - - -
28/12:30am 19.4 S 3 7 1021.1 - - - - - - - - -
28/12:00am 21.4 S 3 6 1020.7 - - - - - - - - -
 
Date/Time
EST
Temp

°C
Wind Pressure Rain
since 9am
mm
Weather Cloud Vis
km
Sea
Height
m
Swell
Dir
 
Speed
knots
Gust
knots
hPa Trend Height
m
Period
s
Dir
27/11:30pm 21.4 S 3 6 1020.8 - - - - - - - - -
27/11:00pm 21.9 S 4 8 1021.2 - - - - - - - - -
27/10:30pm 21.8 SSW 2 5 1021.5 - - - - - - - - -
27/10:00pm 21.9 SW 2 5 1021.3 - - - - - - - - -
27/09:30pm 21.9 SSW 3 7 1021.3 - - - - - - - - -
27/09:00pm 21.9 S 6 10 1021.3 - - - - - - - - -
27/08:30pm 21.9 S 7 11 1021.2 - - - - - - - - -
27/08:00pm 21.8 S 6 10 1021.2 - - - - - - - - -
27/07:30pm 21.7 S 5 8 1021.2 - - - - - - - - -
27/07:00pm 21.7 S 4 7 1021.1 - - - - - - - - -
27/06:30pm 21.6 S 3 8 1020.7 - - - - - - - - -
27/06:00pm 21.6 S 3 9 1020.4 - - - - - - - - -
27/05:30pm 21.6 S 7 11 1020.3 - - - - - - - - -
27/05:00pm 21.7 S 6 10 1020.1 - - - - - - - - -
27/04:30pm 22.0 S 6 9 1019.9 - - - - - - - - -
27/04:00pm 22.0 S 6 10 1019.9 - - - - - - - - -
27/03:30pm 21.8 S 9 12 1020.1 - - - - - - - - -
27/03:00pm 21.9 S 8 13 1020.1 - - - - - - - - -
27/02:30pm 21.9 S 8 11 1020.0 - - - - - - - - -
27/02:00pm 21.9 S 8 11 1020.2 - - - - - - - - -
27/01:30pm 21.7 S 9 12 1020.0 - - - - - - - - -
27/01:00pm 21.7 S 8 12 1020.4 - - - - - - - - -
27/12:30pm 21.9 S 4 8 1021.0 - - - - - - - - -
27/12:00pm 21.5 SSE 5 8 1021.7 - - - - - - - - -
27/11:30am 21.0 S 4 9 1022.3 - - - - - - - - -
27/11:00am 20.6 SSE 6 10 1022.6 - - - - - - - - -
27/10:30am 20.3 S 7 11 1022.7 - - - - - - - - -
27/10:00am 20.1 S 6 11 1022.9 - - - - - - - - -
27/09:30am 19.9 S 7 13 1023.1 - - - - - - - - -
27/09:00am 19.6 S 7 12 1022.9 - - - - - - - - -
27/08:30am 19.2 S 5 9 1023.0 - - - - - - - - -
27/08:00am 18.6 SSW 4 8 1022.7 - - - - - - - - -
27/07:30am 17.6 SSW 4 7 1022.6 - - - - - - - - -
27/07:00am 17.4 SSW 6 10 1022.0 - - - - - - - - -
27/06:30am 18.2 SSW 4 6 1021.9 - - - - - - - - -
27/06:00am 19.0 SSW 5 9 1021.8 - - - - - - - - -
27/05:30am 19.4 S 5 11 1021.3 - - - - - - - - -
27/05:00am 19.5 S 6 13 1021.0 - - - - - - - - -
27/04:30am 19.1 SSW 4 8 1020.9 - - - - - - - - -
27/04:00am 19.6 S 5 12 1020.7 - - - - - - - - -
27/03:30am 19.6 S 5 11 1021.3 - - - - - - - - -
27/03:00am 19.4 S 5 9 1021.2 - - - - - - - - -
27/02:30am 19.4 SSW 5 9 1021.5 - - - - - - - - -
27/02:00am 19.7 S 4 8 1021.7 - - - - - - - - -
27/01:30am 20.2 S 4 10 1022.1 - - - - - - - - -
27/01:00am 20.4 S 5 11 1022.1 - - - - - - - - -
27/12:30am 20.3 S 3 7 1022.1 - - - - - - - - -
27/12:00am 20.0 SSW 3 8 1022.1 - - - - - - - - -
 
Date/Time
EST
Temp

°C
Wind Pressure Rain
since 9am
mm
Weather Cloud Vis
km
Sea
Height
m
Swell
Dir
 
Speed
knots
Gust
knots
hPa Trend Height
m
Period
s
Dir
26/11:30pm 20.7 SSE 4 9 1022.4 - - - - - - - - -
26/11:00pm 20.7 S 4 10 1022.6 - - - - - - - - -
26/10:30pm 21.0 S 6 12 1023.3 - - - - - - - - -
26/10:00pm 21.3 S 7 13 1023.3 - - - - - - - - -
26/09:30pm 21.4 S 6 13 1023.3 - - - - - - - - -
26/09:00pm 20.9 S 4 8 1023.3 - - - - - - - - -
26/08:30pm 21.1 S 5 11 1023.4 - - - - - - - - -
26/08:00pm 21.2 S 3 9 1023.7 - - - - - - - - -
26/07:30pm 21.4 S 6 11 1023.4 - - - - - - - - -
26/07:00pm 21.3 S 4 11 1023.0 - - - - - - - - -
26/06:30pm 21.6 S 4 7 1023.0 - - - - - - - - -
26/06:00pm 21.5 S 2 5 1022.7 - - - - - - - - -
26/05:30pm 21.3 S 3 9 1022.4 - - - - - - - - -
26/05:00pm 20.9 S 8 15 1022.3 - - - - - - - - -

Other Formats:

Comma delimited format used in spreadsheet applications
http://www.bom.gov.au/fwo/IDQ60701/IDQ60701.95298.axf

JavaScript Object Notation format (JSON) in row-major order
http://www.bom.gov.au/fwo/IDQ60701/IDQ60701.95298.json